الصفحة الرئيسية
METAR-TAF:

METAR-TAF

مطار :

Punta Arenas, تشيلي

دائرة عرض: 53-00S, خط طول: 070-51W, ارتفاع: 37 متر

مراقبة الطقس الحالي

تاريخ ووقت الإصدار 59 دقيقة قبل الساعة 16:00UTC
ريح 4 عقدة من الجنوب/الجنوب الشرقي
درجة الحرارة 2°درجة مئوية
الرطوبة 93%
ضغط 998 hPa
الرؤية 10 كم أو أكثر
غيوم متفرقة على ارتفاع 700 قدم
غيوم مفككة على ارتفاع 1600 قدم

METAR: SCCI 211600Z 15004KT 9999 SCT007 BKN016 02/01 Q0998 NOSIG

زمن: 12:59 (16:59 UTC)

توقعات

تاريخ ووقت الإصدار 6ساعات و 7 دقيقة قبل الساعة 10:52UTC
التوقعات صالحة من21 الساعة 12 UTC إلى 22 الساعة 12 UTC
ريح 6 عقدة من الجنوب الغربي
الرؤية 10 كم أو أكثر
غيوم قليلة على ارتفاع 4000 قدم
نظرية الاحتمالات 40% :
مؤقت
من 21 الساعة 12 UTC إلى 21 الساعة 14 UTC
ريح 4 عقدةمن اتجاهات متغيرة
أصبح
من 22 الساعة 02 UTC إلى 22 الساعة 04 UTC
ريح 8 عقدة من الغرب
أصبح
من 22 الساعة 08 UTC إلى 22 الساعة 10 UTC
ريح 8 عقدة من الغرب/الشمال الغربي

TAF: SCCI 211052Z 2112/2212 23006KT 9999 FEW040 TNM04/2112Z TX03/2117Z PROB40 TEMPO 2112/2114 VRB04KT BECMG 2202/2204 28008KT BECMG 2208/2210 30008KT

أرصاد الطقس والتوقعات من أكثر من 4000 مطار (تقارير الطقس للمطار METAR والتنبؤ بالطقس بالمطارTAF).

المحطات المتاحة هي النقط الصفراء والحمراء على الخريطة.

حرك المؤشر فوق النقطة لمعرفة اسم المحطة.

ثم انقر لمعرفة أرصاد وتوقعات الطقس.

لتغيير الخارطة: اضغط على الأزرار الخضراء مع رمز الصليب الأسود للتكبير. على الزر الأخضر مع شرطة للتصغير، أو على الأسهم الخضراء للخرائط المجاورة.


METAR-TAF: